KRAL/RAL METAR and TAF weather

Enter ICAO airport designator
Station Type Date Time Source
KRAL METAR 2020/09/20 01:53 UTC NOAA

KRAL 200153Z 28007KT 10SM CLR 29/02 A2980 RMK AO2 SLP076 T02940022


Station Type Date Time Source
KRAL Decoded METAR 2020/09/20 01:53 UTC NOAA

RIVERSIDE MUNICIPAL AIRPORT , CA, United States (KRAL) 33-57N 117-27W 252M
Sep 19, 2020 - 09:53 PM EDT / 2020.09.20 0153 UTC
Wind: from the W (280 degrees) at 8 MPH (7 KT):0
Visibility: 10 mile(s):0
Sky conditions: clear
Temperature: 84.9 F (29.4 C)
Dew Point: 36.0 F (2.2 C)
Relative Humidity: 17%
Pressure (altimeter): 29.8 in. Hg (1009 hPa)
ob: KRAL 200153Z 28007KT 10SM CLR 29/02 A2980 RMK AO2 SLP076 T02940022
cycle: 2

Station Type Date Time Source
KRAL TAF UTC NOAA

Error!

Example: see airport list